createdAt,value
2023-04-20T00:00:48.426Z,100440.28
2023-04-20T00:05:49.438Z,100428.69
2023-04-20T00:10:49.744Z,100425.75
2023-04-20T00:15:48.733Z,100421.84
2023-04-20T00:20:47.589Z,100420.59
2023-04-20T00:25:46.559Z,100417.78
2023-04-20T00:30:47.002Z,100412.09
2023-04-20T00:35:45.892Z,100410.59
2023-04-20T00:40:49.027Z,100409.13
2023-04-20T00:45:49.578Z,100411.88
2023-04-20T00:50:49.483Z,100418.13
2023-04-20T00:55:49.142Z,100411.03
2023-04-20T01:00:49.582Z,100419.09
2023-04-20T01:05:50.103Z,100422.69
2023-04-20T01:10:49.010Z,100414.88
2023-04-20T01:15:49.453Z,100407.84
2023-04-20T01:20:48.518Z,100415.28
2023-04-20T01:25:48.844Z,100410.16
2023-04-20T01:30:48.044Z,100402.66
2023-04-20T01:35:47.046Z,100393.28
2023-04-20T01:40:45.962Z,100393.38
2023-04-20T01:45:46.683Z,100374.66
2023-04-20T01:50:45.696Z,100388.00
2023-04-20T01:55:45.361Z,100385.66
2023-04-20T02:00:47.244Z,100387.38
2023-04-20T02:05:46.185Z,100387.50
2023-04-20T02:10:45.204Z,100384.84
2023-04-20T02:15:46.680Z,100394.16
2023-04-20T02:20:46.234Z,100388.09
2023-04-20T02:25:45.164Z,100392.88
2023-04-20T02:30:44.256Z,100396.91
2023-04-20T02:35:45.484Z,100394.44
2023-04-20T02:40:44.509Z,100401.66
2023-04-20T02:45:43.474Z,100384.22
2023-04-20T02:50:44.903Z,100391.38
2023-04-20T02:55:49.451Z,100403.75
2023-04-20T03:01:24.186Z,100410.41
2023-04-20T03:06:33.594Z,100408.50
2023-04-20T03:11:33.098Z,100411.75
2023-04-20T03:16:32.847Z,100412.72
2023-04-20T03:21:33.722Z,100415.34
2023-04-20T03:26:32.751Z,100422.72
2023-04-20T03:31:46.707Z,100418.22
2023-04-20T03:36:47.250Z,100420.69
2023-04-20T03:41:46.414Z,100418.28
2023-04-20T03:46:45.504Z,100417.78
2023-04-20T03:51:44.376Z,100413.63
2023-04-20T03:56:46.206Z,100418.91
2023-04-20T04:01:46.010Z,100425.78
2023-04-20T04:06:45.302Z,100418.69
2023-04-20T04:11:45.796Z,100423.97
2023-04-20T04:16:46.591Z,100432.06
2023-04-20T04:21:46.080Z,100435.22
2023-04-20T04:26:48.841Z,100440.84
2023-04-20T04:31:50.583Z,100450.19
2023-04-20T04:36:52.572Z,100449.41
2023-04-20T04:42:00.813Z,100451.00
2023-04-20T04:47:12.216Z,100458.56
2023-04-20T04:52:11.488Z,100459.03
2023-04-20T04:57:12.182Z,100462.06
2023-04-20T05:02:13.384Z,100468.66
2023-04-20T05:07:14.266Z,100473.59
2023-04-20T05:12:14.521Z,100469.03
2023-04-20T05:17:13.383Z,100475.59
2023-04-20T05:22:12.182Z,100480.31
2023-04-20T05:27:11.472Z,100484.91
2023-04-20T05:32:11.807Z,100486.66
2023-04-20T05:37:10.613Z,100491.72
2023-04-20T05:42:09.357Z,100503.59
2023-04-20T05:47:08.916Z,100508.66
2023-04-20T05:52:09.164Z,100512.97
2023-04-20T05:57:07.889Z,100514.28
2023-04-20T06:02:07.149Z,100514.09
2023-04-20T06:07:06.049Z,100513.69
2023-04-20T06:12:06.631Z,100507.91
2023-04-20T06:17:05.386Z,100522.16
2023-04-20T06:22:07.787Z,100515.38
2023-04-20T06:27:07.966Z,100514.66
2023-04-20T06:32:06.997Z,100519.59
2023-04-20T06:37:07.713Z,100518.81
2023-04-20T06:42:09.776Z,100519.97
2023-04-20T06:47:08.739Z,100515.28
2023-04-20T06:52:07.628Z,100521.00
2023-04-20T06:57:07.892Z,100515.09
2023-04-20T07:02:06.924Z,100522.47
2023-04-20T07:07:05.789Z,100521.03
2023-04-20T07:12:04.735Z,100505.28
2023-04-20T07:17:04.964Z,100524.22
2023-04-20T07:22:03.844Z,100539.09
2023-04-20T07:27:02.799Z,100526.94
2023-04-20T07:32:01.732Z,100536.38
2023-04-20T07:37:03.932Z,100549.59
2023-04-20T07:42:04.634Z,100543.72
2023-04-20T07:47:04.860Z,100538.00
2023-04-20T07:52:15.871Z,100538.84
2023-04-20T07:57:16.282Z,100533.13
2023-04-20T08:02:15.442Z,100533.56
2023-04-20T08:07:15.883Z,100532.38
2023-04-20T08:12:15.099Z,100530.63
2023-04-20T08:17:14.078Z,100532.28
2023-04-20T08:22:13.629Z,100523.66
2023-04-20T08:27:13.780Z,100534.44
2023-04-20T08:32:12.680Z,100532.22
2023-04-20T08:37:11.523Z,100538.03
2023-04-20T08:42:10.502Z,100538.25
2023-04-20T08:47:11.652Z,100538.34
2023-04-20T08:52:11.318Z,100545.22
2023-04-20T08:57:10.077Z,100540.16
2023-04-20T09:02:14.748Z,100535.50
2023-04-20T09:07:21.040Z,100540.59
2023-04-20T09:12:21.608Z,100532.84
2023-04-20T09:17:33.651Z,100533.66
2023-04-20T09:22:33.752Z,100543.38
2023-04-20T09:27:32.627Z,100542.00
2023-04-20T09:32:33.288Z,100545.53
2023-04-20T09:37:32.065Z,100539.50
2023-04-20T09:42:33.356Z,100548.38
2023-04-20T09:47:36.943Z,100543.25
2023-04-20T09:52:38.934Z,100535.03
2023-04-20T10:03:43.336Z,100539.44
2023-04-20T10:08:42.822Z,100528.72
2023-04-20T10:13:41.594Z,100527.94
2023-04-20T10:18:41.931Z,100516.44
2023-04-20T10:23:49.466Z,100515.38
2023-04-20T10:28:48.313Z,100516.56
2023-04-20T10:33:53.505Z,100504.09
2023-04-20T10:38:53.049Z,100498.34
2023-04-20T10:43:52.294Z,100501.34
2023-04-20T10:48:54.124Z,100490.78
2023-04-20T10:54:00.687Z,100483.44
2023-04-20T10:59:08.359Z,100479.19
2023-04-20T11:04:09.340Z,100481.50
2023-04-20T11:09:20.066Z,100477.22
2023-04-20T11:14:19.221Z,100467.38
2023-04-20T11:19:26.887Z,100462.41
2023-04-20T11:24:27.461Z,100460.38
2023-04-20T11:29:31.982Z,100444.53
2023-04-20T11:34:33.612Z,100442.84
2023-04-20T11:39:33.605Z,100430.41
2023-04-20T11:44:33.283Z,100426.66
2023-04-20T11:50:03.558Z,100422.03
2023-04-20T11:55:02.824Z,100420.38
2023-04-20T12:00:01.715Z,100420.44
2023-04-20T12:05:03.316Z,100420.63
2023-04-20T12:10:02.406Z,100414.94
2023-04-20T12:15:01.209Z,100410.16
2023-04-20T12:20:02.866Z,100406.78
2023-04-20T12:25:01.847Z,100407.06
2023-04-20T12:30:00.567Z,100403.50
2023-04-20T12:34:59.337Z,100402.50
2023-04-20T12:39:59.437Z,100397.22
2023-04-20T12:44:58.228Z,100414.38
2023-04-20T12:49:57.032Z,100441.66
2023-04-20T12:54:59.503Z,100450.97
2023-04-20T12:59:58.507Z,100448.03
2023-04-20T13:04:58.481Z,100448.44
2023-04-20T13:09:57.335Z,100436.00
2023-04-20T13:14:57.523Z,100426.00
2023-04-20T13:19:56.408Z,100403.03
2023-04-20T13:24:55.226Z,100394.56
2023-04-20T13:29:54.039Z,100398.34
2023-04-20T13:34:54.231Z,100384.47
2023-04-20T13:39:53.024Z,100377.13
2023-04-20T13:44:52.514Z,100376.44
2023-04-20T13:49:51.402Z,100373.50
2023-04-20T13:54:51.697Z,100367.22
2023-04-20T13:59:51.374Z,100361.28
2023-04-20T14:04:50.238Z,100352.97
2023-04-20T14:09:49.199Z,100347.81
2023-04-20T14:14:49.651Z,100349.88
2023-04-20T14:19:49.681Z,100351.69
2023-04-20T14:24:49.201Z,100351.75
2023-04-20T14:29:49.432Z,100366.44
2023-04-20T14:34:48.217Z,100366.38
2023-04-20T14:39:47.258Z,100358.28
2023-04-20T14:44:47.847Z,100370.25
2023-04-20T14:49:48.018Z,100370.03
2023-04-20T14:54:46.980Z,100385.31
2023-04-20T14:59:45.808Z,100385.34
2023-04-20T15:04:44.616Z,100387.41
2023-04-20T15:09:44.934Z,100399.28
2023-04-20T15:14:43.857Z,100405.53
2023-04-20T15:19:46.149Z,100403.00
2023-04-20T15:24:46.448Z,100422.72
2023-04-20T15:29:45.197Z,100414.22
2023-04-20T15:34:43.951Z,100418.38
2023-04-20T15:39:42.751Z,100413.06
2023-04-20T15:44:42.934Z,100430.59
2023-04-20T15:49:41.956Z,100419.03
2023-04-20T15:54:41.328Z,100416.94
2023-04-20T15:59:43.819Z,100410.47
2023-04-20T16:04:42.885Z,100409.31
2023-04-20T16:09:43.126Z,100399.19
2023-04-20T16:14:43.428Z,100389.31
2023-04-20T16:19:42.205Z,100396.25
2023-04-20T16:24:41.259Z,100396.16
2023-04-20T16:29:40.134Z,100401.63
2023-04-20T16:34:41.136Z,100402.94
2023-04-20T16:39:39.927Z,100422.38
2023-04-20T16:44:41.107Z,100424.25
2023-04-20T16:49:42.030Z,100428.00
2023-04-20T16:54:41.802Z,100437.03
2023-04-20T16:59:40.700Z,100438.66
2023-04-20T17:04:39.553Z,100440.91
2023-04-20T17:09:39.851Z,100442.59
2023-04-20T17:14:38.699Z,100442.00
2023-04-20T17:19:40.743Z,100447.16
2023-04-20T17:24:41.071Z,100461.31
2023-04-20T17:29:40.333Z,100478.66
2023-04-20T17:34:40.101Z,100485.22
2023-04-20T17:39:40.608Z,100488.59
2023-04-20T17:44:39.696Z,100498.59
2023-04-20T17:49:41.464Z,100497.16
2023-04-20T17:54:41.787Z,100499.56
2023-04-20T17:59:41.914Z,100521.06
2023-04-20T18:04:41.055Z,100525.38
2023-04-20T18:09:41.441Z,100529.91
2023-04-20T18:14:42.568Z,100524.72
2023-04-20T18:19:41.987Z,100535.16
2023-04-20T18:24:42.327Z,100542.53
2023-04-20T18:29:42.869Z,100545.09
2023-04-20T18:34:41.717Z,100526.84
2023-04-20T18:39:41.904Z,100496.50
2023-04-20T18:44:40.752Z,100486.63
2023-04-20T18:49:39.613Z,100488.13
2023-04-20T18:54:38.658Z,100492.13
2023-04-20T18:59:39.013Z,100494.31
2023-04-20T19:04:37.983Z,100505.13
2023-04-20T19:09:36.736Z,100514.56
2023-04-20T19:14:35.543Z,100524.06
2023-04-20T19:19:38.244Z,100523.13
2023-04-20T19:24:37.094Z,100519.34
2023-04-20T19:29:37.140Z,100527.75
2023-04-20T19:34:38.029Z,100536.88
2023-04-20T19:39:37.022Z,100533.19
2023-04-20T19:44:35.950Z,100534.88
2023-04-20T19:49:34.714Z,100534.06
2023-04-20T19:54:35.278Z,100536.50
2023-04-20T19:59:34.061Z,100547.44
2023-04-20T20:04:33.806Z,100550.31
2023-04-20T20:09:34.044Z,100545.53
2023-04-20T20:14:32.957Z,100536.84
2023-04-20T20:19:31.807Z,100544.28
2023-04-20T20:24:30.548Z,100542.94
2023-04-20T20:29:30.731Z,100551.31
2023-04-20T20:34:30.829Z,100559.56
2023-04-20T20:39:29.674Z,100563.06
2023-04-20T20:44:33.027Z,100553.25
2023-04-20T20:49:31.822Z,100555.47
2023-04-20T20:54:30.534Z,100556.94
2023-04-20T20:59:30.661Z,100555.19
2023-04-20T21:04:30.288Z,100556.44
2023-04-20T21:09:29.017Z,100532.75
2023-04-20T21:14:27.970Z,100519.22
2023-04-20T21:19:28.150Z,100498.22
2023-04-20T21:24:26.937Z,100518.28
2023-04-20T21:29:25.811Z,100522.34
2023-04-20T21:34:24.753Z,100511.59
2023-04-20T21:39:24.934Z,100513.06
2023-04-20T21:44:23.698Z,100498.75
2023-04-20T21:49:22.694Z,100494.88
2023-04-20T21:54:21.564Z,100484.69
2023-04-20T21:59:21.857Z,100491.31
2023-04-20T22:04:20.808Z,100488.41
2023-04-20T22:09:19.785Z,100481.44
2023-04-20T22:14:18.892Z,100487.41
2023-04-20T22:19:19.228Z,100491.47
2023-04-20T22:24:18.112Z,100483.63
2023-04-20T22:29:19.626Z,100472.88
2023-04-20T22:34:20.154Z,100461.84
2023-04-20T22:39:19.210Z,100468.63
2023-04-20T22:44:18.181Z,100463.81
2023-04-20T22:49:17.187Z,100473.34
2023-04-20T22:54:17.864Z,100460.59
2023-04-20T22:59:17.098Z,100447.19
2023-04-20T23:04:16.370Z,100460.16
2023-04-20T23:09:20.505Z,100454.69
2023-04-20T23:14:22.572Z,100454.28
2023-04-20T23:19:21.918Z,100452.56
2023-04-20T23:24:27.995Z,100470.28
2023-04-20T23:29:28.613Z,100473.97
2023-04-20T23:34:27.567Z,100475.25
2023-04-20T23:39:26.279Z,100457.28
2023-04-20T23:44:25.148Z,100439.31
2023-04-20T23:49:25.465Z,100420.06
2023-04-20T23:54:24.154Z,100408.28
2023-04-20T23:59:22.914Z,100401.25
